createdAt,value
2023-01-23T00:01:15.863Z,0.45
2023-01-23T00:03:42.570Z,0.48
2023-01-23T00:06:11.783Z,0.54
2023-01-23T00:08:38.601Z,0.61
2023-01-23T00:11:06.437Z,0.63
2023-01-23T00:13:33.508Z,0.60
2023-01-23T00:16:03.168Z,0.51
2023-01-23T00:18:29.688Z,0.44
2023-01-23T00:20:56.176Z,0.48
2023-01-23T00:23:22.613Z,0.57
2023-01-23T00:25:49.123Z,0.58
2023-01-23T00:28:15.585Z,0.52
2023-01-23T00:30:42.059Z,0.48
2023-01-23T00:33:08.615Z,0.43
2023-01-23T00:35:35.551Z,0.39
2023-01-23T00:38:02.017Z,0.44
2023-01-23T00:40:28.527Z,0.48
2023-01-23T00:42:55.104Z,0.54
2023-01-23T00:45:21.600Z,0.60
2023-01-23T00:47:48.024Z,0.61
2023-01-23T00:50:15.117Z,0.62
2023-01-23T00:52:41.726Z,0.65
2023-01-23T00:55:08.656Z,0.57
2023-01-23T00:57:35.148Z,0.47
2023-01-23T01:00:01.595Z,0.42
2023-01-23T01:02:28.119Z,0.47
2023-01-23T01:04:54.588Z,0.57
2023-01-23T01:07:21.015Z,0.63
2023-01-23T01:09:47.713Z,0.63
2023-01-23T01:12:14.346Z,0.62
2023-01-23T01:14:40.980Z,0.62
2023-01-23T01:17:07.573Z,0.63
2023-01-23T01:19:33.997Z,0.62
2023-01-23T01:22:00.410Z,0.61
2023-01-23T01:24:26.884Z,0.63
2023-01-23T01:26:53.476Z,0.65
2023-01-23T01:29:19.972Z,0.70
2023-01-23T01:31:47.691Z,0.72
2023-01-23T01:34:14.229Z,0.73
2023-01-23T01:36:40.791Z,0.72
2023-01-23T01:39:07.539Z,0.75
2023-01-23T01:41:34.045Z,0.74
2023-01-23T01:44:00.746Z,0.72
2023-01-23T01:46:28.048Z,0.68
2023-01-23T01:48:57.584Z,0.65
2023-01-23T01:51:27.146Z,0.65
2023-01-23T01:54:06.393Z,0.72
2023-01-23T01:56:34.702Z,0.77
2023-01-23T01:59:02.271Z,0.75
2023-01-23T02:01:28.857Z,0.68
2023-01-23T02:03:55.445Z,0.63
2023-01-23T02:06:22.148Z,0.58
2023-01-23T02:09:02.037Z,0.56
2023-01-23T02:11:28.721Z,0.57
2023-01-23T02:13:56.772Z,0.57
2023-01-23T02:16:29.595Z,0.56
2023-01-23T02:18:59.087Z,0.55
2023-01-23T02:21:25.751Z,0.55
2023-01-23T02:23:55.311Z,0.55
2023-01-23T02:26:27.890Z,0.57
2023-01-23T02:28:55.946Z,0.55
2023-01-23T02:31:22.648Z,0.55
2023-01-23T02:33:51.022Z,0.57
2023-01-23T02:36:18.209Z,0.62
2023-01-23T02:38:49.344Z,0.66
2023-01-23T02:41:16.027Z,0.69
2023-01-23T02:43:42.768Z,0.68
2023-01-23T02:46:10.820Z,0.69
2023-01-23T02:48:40.027Z,0.70
2023-01-23T02:51:07.477Z,0.71
2023-01-23T02:53:34.016Z,0.70
2023-01-23T02:56:00.850Z,0.69
2023-01-23T02:58:45.783Z,0.68
2023-01-23T03:01:12.304Z,0.67
2023-01-23T03:03:41.625Z,0.68
2023-01-23T03:06:08.422Z,0.68
2023-01-23T03:08:36.712Z,0.67
2023-01-23T03:11:04.139Z,0.70
2023-01-23T03:13:30.654Z,0.73
2023-01-23T03:16:00.450Z,0.75
2023-01-23T03:18:30.998Z,0.80
2023-01-23T03:21:01.789Z,0.80
2023-01-23T03:23:28.239Z,0.77
2023-01-23T03:25:58.530Z,0.79
2023-01-23T03:28:44.768Z,0.75
2023-01-23T03:31:11.941Z,0.72
2023-01-23T03:33:39.326Z,0.75
2023-01-23T03:36:06.311Z,0.77
2023-01-23T03:38:32.830Z,0.81
2023-01-23T03:41:17.715Z,0.79
2023-01-23T03:43:44.202Z,0.80
2023-01-23T03:46:10.749Z,0.82
2023-01-23T03:48:37.173Z,0.82
2023-01-23T03:51:03.787Z,0.81
2023-01-23T03:53:30.220Z,0.83
2023-01-23T03:55:56.647Z,0.86
2023-01-23T03:58:23.071Z,0.82
2023-01-23T04:00:49.587Z,0.83
2023-01-23T04:03:16.322Z,0.77
2023-01-23T04:05:42.743Z,0.76
2023-01-23T04:08:09.171Z,0.78
2023-01-23T04:10:36.339Z,0.78
2023-01-23T04:13:03.389Z,0.81
2023-01-23T04:15:31.763Z,0.76
2023-01-23T04:17:58.267Z,0.80
2023-01-23T04:20:24.977Z,0.87
2023-01-23T04:22:51.427Z,0.90
2023-01-23T04:25:17.911Z,0.81
2023-01-23T04:27:44.363Z,0.76
2023-01-23T04:30:11.111Z,0.80
2023-01-23T04:32:37.586Z,0.74
2023-01-23T04:35:04.153Z,0.81
2023-01-23T04:37:30.580Z,0.87
2023-01-23T04:39:57.046Z,0.87
2023-01-23T04:42:23.522Z,0.93
2023-01-23T04:44:49.959Z,0.97
2023-01-23T04:47:16.404Z,0.98
2023-01-23T04:49:43.474Z,0.95
2023-01-23T04:52:09.969Z,0.98
2023-01-23T04:54:36.488Z,1.00
2023-01-23T04:57:02.953Z,1.00
2023-01-23T04:59:29.384Z,1.04
2023-01-23T05:01:55.865Z,1.06
2023-01-23T05:04:22.330Z,1.09
2023-01-23T05:06:48.774Z,1.12
2023-01-23T05:09:15.209Z,1.04
2023-01-23T05:11:41.720Z,1.03
2023-01-23T05:14:08.290Z,1.04
2023-01-23T05:16:34.869Z,1.06
2023-01-23T05:19:01.314Z,1.06
2023-01-23T05:21:27.783Z,1.03
2023-01-23T05:23:54.236Z,1.04
2023-01-23T05:26:20.675Z,1.10
2023-01-23T05:28:47.132Z,1.08
2023-01-23T05:31:13.644Z,1.09
2023-01-23T05:33:40.511Z,1.11
2023-01-23T05:36:07.137Z,1.14
2023-01-23T05:38:33.582Z,1.16
2023-01-23T05:40:59.983Z,1.18
2023-01-23T05:43:26.471Z,1.16
2023-01-23T05:45:52.884Z,1.21
2023-01-23T05:48:19.363Z,1.16
2023-01-23T05:50:45.772Z,1.18
2023-01-23T05:53:12.219Z,1.21
2023-01-23T05:55:39.259Z,1.20
2023-01-23T05:58:05.781Z,1.20
2023-01-23T06:00:33.123Z,1.25
2023-01-23T06:02:59.549Z,1.26
2023-01-23T06:05:26.097Z,1.29
2023-01-23T06:07:52.605Z,1.29
2023-01-23T06:10:19.356Z,1.32
2023-01-23T06:12:45.993Z,1.35
2023-01-23T06:15:12.487Z,1.37
2023-01-23T06:17:38.948Z,1.40
2023-01-23T06:20:05.701Z,1.40
2023-01-23T06:22:32.178Z,1.38
2023-01-23T06:24:58.609Z,1.38
2023-01-23T06:27:25.057Z,1.38
2023-01-23T06:29:51.489Z,1.40
2023-01-23T06:32:18.105Z,1.39
2023-01-23T06:34:44.580Z,1.39
2023-01-23T06:37:11.020Z,1.41
2023-01-23T06:39:37.906Z,1.42
2023-01-23T06:42:06.099Z,1.42
2023-01-23T06:44:32.530Z,1.45
2023-01-23T06:46:58.953Z,1.46
2023-01-23T06:49:25.562Z,1.45
2023-01-23T06:51:51.974Z,1.46
2023-01-23T06:54:18.435Z,1.44
2023-01-23T06:56:44.903Z,1.50
2023-01-23T06:59:11.435Z,1.58
2023-01-23T07:01:37.897Z,1.62
2023-01-23T07:04:04.430Z,1.64
2023-01-23T07:06:31.379Z,1.66
2023-01-23T07:08:57.812Z,1.64
2023-01-23T07:11:24.546Z,1.62
2023-01-23T07:13:50.988Z,1.66
2023-01-23T07:16:17.552Z,1.70
2023-01-23T07:18:44.001Z,1.68
2023-01-23T07:21:10.612Z,1.59
2023-01-23T07:23:37.099Z,1.51
2023-01-23T07:26:04.713Z,1.52
2023-01-23T07:28:31.218Z,1.58
2023-01-23T07:30:59.145Z,1.63
2023-01-23T07:33:25.677Z,1.62
2023-01-23T07:35:52.099Z,1.60
2023-01-23T07:38:18.524Z,1.64
2023-01-23T07:40:45.459Z,1.69
2023-01-23T07:43:12.251Z,1.74
2023-01-23T07:45:38.977Z,1.78
2023-01-23T07:48:05.420Z,1.77
2023-01-23T07:50:31.838Z,1.71
2023-01-23T07:52:58.555Z,1.75
2023-01-23T07:55:25.030Z,1.77
2023-01-23T07:57:51.468Z,1.76
2023-01-23T08:00:18.567Z,1.74
2023-01-23T08:02:45.170Z,1.74
2023-01-23T08:05:11.775Z,1.72
2023-01-23T08:07:40.341Z,1.76
2023-01-23T08:10:07.292Z,1.84
2023-01-23T08:12:34.011Z,1.88
2023-01-23T08:15:00.527Z,1.91
2023-01-23T08:17:27.007Z,1.92
2023-01-23T08:19:53.435Z,1.96
2023-01-23T08:22:19.871Z,1.99
2023-01-23T08:24:47.301Z,1.99
2023-01-23T08:27:13.804Z,2.03
2023-01-23T08:29:40.272Z,2.04
2023-01-23T08:32:06.809Z,2.05
2023-01-23T08:34:33.353Z,2.07
2023-01-23T08:36:59.768Z,2.07
2023-01-23T08:39:26.305Z,2.08
2023-01-23T08:41:52.725Z,2.08
2023-01-23T08:44:19.330Z,2.09
2023-01-23T08:46:46.082Z,2.11
2023-01-23T08:49:12.645Z,2.11
2023-01-23T08:51:39.185Z,2.14
2023-01-23T08:54:06.141Z,2.11
2023-01-23T08:56:32.634Z,2.13
2023-01-23T08:58:59.120Z,2.13
2023-01-23T09:01:26.623Z,2.17
2023-01-23T09:03:53.221Z,2.21
2023-01-23T09:06:21.256Z,2.23
2023-01-23T09:08:47.766Z,2.23
2023-01-23T09:11:14.894Z,2.26
2023-01-23T09:13:41.590Z,2.28
2023-01-23T09:16:08.562Z,2.32
2023-01-23T09:18:35.359Z,2.36
2023-01-23T09:21:08.547Z,2.38
2023-01-23T09:23:35.153Z,2.38
2023-01-23T09:26:05.613Z,2.38
2023-01-23T09:28:32.240Z,2.37
2023-01-23T09:31:02.305Z,2.38
2023-01-23T09:33:28.933Z,2.41
2023-01-23T09:35:55.454Z,2.40
2023-01-23T09:38:22.506Z,2.41
2023-01-23T09:40:53.679Z,2.43
2023-01-23T09:43:25.098Z,2.46
2023-01-23T09:46:03.111Z,2.47
2023-01-23T09:48:29.697Z,2.52
2023-01-23T09:50:59.290Z,2.52
2023-01-23T09:53:31.126Z,2.51
2023-01-23T09:56:04.957Z,2.51
2023-01-23T09:58:40.676Z,2.54
2023-01-23T10:01:11.338Z,2.57
2023-01-23T10:03:38.038Z,2.60
2023-01-23T10:06:13.751Z,2.59
2023-01-23T10:08:49.427Z,2.63
2023-01-23T10:11:18.810Z,2.66
2023-01-23T10:13:45.584Z,2.65
2023-01-23T10:16:15.055Z,2.64
2023-01-23T10:18:47.610Z,2.63
2023-01-23T10:21:14.025Z,2.68
2023-01-23T10:23:40.896Z,2.72
2023-01-23T10:26:12.682Z,2.72
2023-01-23T10:28:39.506Z,2.73
2023-01-23T10:31:20.482Z,2.77
2023-01-23T10:34:10.320Z,2.70
2023-01-23T10:36:47.782Z,2.64
2023-01-23T10:39:22.586Z,2.63
2023-01-23T10:41:54.313Z,2.64
2023-01-23T10:44:29.504Z,2.61
2023-01-23T10:47:01.679Z,2.60
2023-01-23T10:49:35.320Z,2.60
2023-01-23T10:52:02.129Z,2.55
2023-01-23T10:54:32.235Z,2.53
2023-01-23T10:57:08.360Z,2.53
2023-01-23T10:59:37.400Z,2.53
2023-01-23T11:02:03.984Z,2.56
2023-01-23T11:04:31.934Z,2.54
2023-01-23T11:07:04.583Z,2.52
2023-01-23T11:09:31.398Z,2.55
2023-01-23T11:12:04.849Z,2.53
2023-01-23T11:14:31.789Z,2.51
2023-01-23T11:17:03.131Z,2.55
2023-01-23T11:19:31.226Z,2.57
2023-01-23T11:22:02.084Z,2.63
2023-01-23T11:24:39.684Z,2.67
2023-01-23T11:27:13.233Z,2.64
2023-01-23T11:29:48.744Z,2.66
2023-01-23T11:32:16.884Z,2.72
2023-01-23T11:34:47.184Z,2.75
2023-01-23T11:37:18.375Z,2.72
2023-01-23T11:39:45.397Z,2.66
2023-01-23T11:42:12.926Z,2.72
2023-01-23T11:44:45.991Z,2.72
2023-01-23T11:47:28.097Z,2.76
2023-01-23T11:50:04.410Z,2.73
2023-01-23T11:52:30.854Z,2.76
2023-01-23T11:55:03.415Z,2.72
2023-01-23T11:57:48.266Z,2.76
2023-01-23T12:00:37.717Z,2.78
2023-01-23T12:03:04.213Z,2.82
2023-01-23T12:06:18.336Z,2.84
2023-01-23T12:08:51.463Z,2.86
2023-01-23T12:11:20.324Z,2.89
2023-01-23T12:13:52.850Z,2.90
2023-01-23T12:16:27.258Z,2.90
2023-01-23T12:19:11.863Z,2.89
2023-01-23T12:21:47.595Z,2.92
2023-01-23T12:24:26.234Z,2.98
2023-01-23T12:27:05.833Z,3.03
2023-01-23T12:29:41.614Z,3.04
2023-01-23T12:32:28.322Z,3.04
2023-01-23T12:35:05.246Z,3.04
2023-01-23T12:37:47.227Z,3.05
2023-01-23T12:40:22.688Z,3.06
2023-01-23T12:42:53.653Z,3.07
2023-01-23T12:45:20.447Z,3.07
2023-01-23T12:47:56.083Z,3.07
2023-01-23T12:50:32.809Z,3.09
2023-01-23T12:53:26.329Z,3.11
2023-01-23T12:55:52.838Z,3.12
2023-01-23T12:58:20.376Z,3.14
2023-01-23T13:00:56.181Z,3.14
2023-01-23T13:03:22.940Z,3.16
2023-01-23T13:06:01.482Z,3.15
2023-01-23T13:08:40.487Z,3.16
2023-01-23T13:11:38.842Z,3.17
2023-01-23T13:14:17.496Z,3.16
2023-01-23T13:16:48.454Z,3.15
2023-01-23T13:19:44.525Z,3.17
2023-01-23T13:22:22.299Z,3.12
2023-01-23T13:25:13.152Z,3.14
2023-01-23T13:27:41.167Z,3.13
2023-01-23T13:30:42.833Z,3.02
2023-01-23T13:33:15.282Z,3.02
2023-01-23T13:35:49.379Z,3.05
2023-01-23T13:38:22.109Z,3.07
2023-01-23T13:41:04.381Z,3.04
2023-01-23T13:43:43.095Z,2.99
2023-01-23T13:46:24.093Z,2.97
2023-01-23T14:20:24.484Z,2.83
2023-01-23T14:22:53.914Z,2.86
2023-01-23T14:25:20.479Z,2.83
2023-01-23T14:27:53.607Z,2.88
2023-01-23T14:30:24.736Z,2.88
2023-01-23T14:32:51.262Z,2.88
2023-01-23T14:35:18.932Z,2.88
2023-01-23T14:37:46.732Z,2.83
2023-01-23T14:40:26.583Z,2.85
2023-01-23T14:42:57.614Z,2.84
2023-01-23T14:45:24.266Z,2.75
2023-01-23T14:48:04.490Z,2.79
2023-01-23T14:50:31.933Z,2.77
2023-01-23T14:53:06.346Z,2.78
2023-01-23T14:55:36.507Z,2.75
2023-01-23T14:58:03.799Z,2.69
2023-01-23T15:00:30.579Z,2.73
2023-01-23T15:02:57.054Z,2.78
2023-01-23T15:05:25.258Z,2.73
2023-01-23T15:08:10.701Z,2.75
2023-01-23T15:10:37.224Z,2.72
2023-01-23T15:13:05.883Z,2.67
2023-01-23T15:15:34.520Z,2.68
2023-01-23T15:18:02.180Z,2.70
2023-01-23T15:20:28.888Z,2.65
2023-01-23T15:22:55.468Z,2.51
2023-01-23T15:25:32.731Z,2.43
2023-01-23T15:27:59.200Z,2.37
2023-01-23T15:30:37.976Z,2.35
2023-01-23T15:33:10.289Z,2.32
2023-01-23T15:35:38.872Z,2.28
2023-01-23T15:38:08.673Z,2.31
2023-01-23T15:40:36.983Z,2.38
2023-01-23T15:43:05.832Z,2.47
2023-01-23T15:45:33.818Z,2.47
2023-01-23T15:48:00.689Z,2.43
2023-01-23T15:50:27.802Z,2.42
2023-01-23T15:52:55.082Z,2.40
2023-01-23T15:55:23.540Z,2.46
2023-01-23T15:57:52.168Z,2.49
2023-01-23T16:00:20.645Z,2.49
2023-01-23T16:02:56.336Z,2.55
2023-01-23T16:05:25.031Z,2.52
2023-01-23T16:07:52.563Z,2.48
2023-01-23T16:10:29.833Z,2.48
2023-01-23T16:12:57.388Z,2.40
2023-01-23T16:15:25.443Z,2.33
2023-01-23T16:17:52.051Z,2.32
2023-01-23T16:20:19.833Z,2.33
2023-01-23T16:22:49.028Z,2.27
2023-01-23T16:25:19.869Z,2.22
2023-01-23T16:27:46.323Z,2.27
2023-01-23T16:30:17.333Z,2.25
2023-01-23T16:32:43.844Z,2.29
2023-01-23T16:35:12.005Z,2.34
2023-01-23T16:37:40.899Z,2.36
2023-01-23T16:40:14.797Z,2.37
2023-01-23T16:42:41.957Z,2.34
2023-01-23T16:45:37.601Z,2.37
2023-01-23T16:48:04.252Z,2.39
2023-01-23T16:50:30.800Z,2.30
2023-01-23T16:53:03.589Z,2.25
2023-01-23T16:55:38.620Z,2.24
2023-01-23T16:58:06.487Z,2.20
2023-01-23T17:00:35.196Z,2.22
2023-01-23T17:03:04.871Z,2.23
2023-01-23T17:05:31.384Z,2.30
2023-01-23T17:07:57.874Z,2.34
2023-01-23T17:10:27.765Z,2.36
2023-01-23T17:12:57.314Z,2.28
2023-01-23T17:15:25.003Z,2.25
2023-01-23T17:17:52.724Z,2.19
2023-01-23T17:20:19.448Z,2.18
2023-01-23T17:22:46.315Z,2.21
2023-01-23T17:25:13.644Z,2.25
2023-01-23T17:27:45.409Z,2.24
2023-01-23T17:30:23.201Z,2.21
2023-01-23T17:32:55.688Z,2.26
2023-01-23T17:35:24.544Z,2.30
2023-01-23T17:37:51.815Z,2.31
2023-01-23T17:40:18.526Z,2.37
2023-01-23T17:42:45.145Z,2.33
2023-01-23T17:45:15.910Z,2.33
2023-01-23T17:47:43.420Z,2.34
2023-01-23T17:50:17.785Z,2.34
2023-01-23T17:52:44.478Z,2.28
2023-01-23T17:55:18.754Z,2.27
2023-01-23T17:57:45.239Z,2.24
2023-01-23T18:00:13.071Z,2.19
2023-01-23T18:02:40.372Z,2.16
2023-01-23T18:05:10.134Z,2.18
2023-01-23T18:07:52.342Z,2.21
2023-01-23T18:10:20.726Z,2.08
2023-01-23T18:13:14.854Z,2.08
2023-01-23T18:16:04.637Z,2.10
2023-01-23T18:18:32.282Z,2.23
2023-01-23T18:20:59.602Z,2.28
2023-01-23T18:23:27.233Z,2.27
2023-01-23T18:26:13.895Z,2.30
2023-01-23T18:28:51.988Z,2.33
2023-01-23T18:31:26.504Z,2.37
2023-01-23T18:33:58.655Z,2.42
2023-01-23T18:36:25.067Z,2.44
2023-01-23T18:39:10.684Z,2.46
2023-01-23T18:41:38.715Z,2.51
2023-01-23T18:44:11.257Z,2.54
2023-01-23T18:46:37.800Z,2.53
2023-01-23T18:49:04.691Z,2.55
2023-01-23T18:51:37.777Z,2.49
2023-01-23T18:54:20.504Z,2.35
2023-01-23T18:56:56.324Z,2.39
2023-01-23T18:59:26.715Z,2.41
2023-01-23T19:01:54.578Z,2.44
2023-01-23T19:04:38.276Z,2.49
2023-01-23T19:07:14.212Z,2.29
2023-01-23T19:09:46.300Z,2.32
2023-01-23T19:12:30.283Z,2.39
2023-01-23T19:15:16.290Z,2.33
2023-01-23T19:17:42.760Z,2.32
2023-01-23T19:20:28.445Z,2.30
2023-01-23T19:23:13.795Z,2.21
2023-01-23T19:25:40.395Z,2.23
2023-01-23T19:28:10.171Z,2.25
2023-01-23T19:30:38.167Z,2.34
2023-01-23T19:33:04.828Z,2.42
2023-01-23T19:35:32.113Z,2.39
2023-01-23T19:38:00.345Z,2.46
2023-01-23T19:40:26.880Z,2.51
2023-01-23T19:43:12.862Z,2.52
2023-01-23T19:45:40.771Z,2.56
2023-01-23T19:48:07.306Z,2.55
2023-01-23T19:50:33.729Z,2.58
2023-01-23T19:53:00.354Z,2.44
2023-01-23T19:55:26.858Z,2.43
2023-01-23T19:57:53.375Z,2.37
2023-01-23T20:00:20.483Z,2.43
2023-01-23T20:02:47.108Z,2.46
2023-01-23T20:05:13.564Z,2.44
2023-01-23T20:07:40.062Z,2.43
2023-01-23T20:10:07.416Z,2.36
2023-01-23T20:12:39.811Z,2.41
2023-01-23T20:15:06.694Z,2.47
2023-01-23T20:17:33.226Z,2.48
2023-01-23T20:19:59.712Z,2.40
2023-01-23T20:22:26.168Z,2.32
2023-01-23T20:24:52.617Z,2.29
2023-01-23T20:27:19.188Z,2.30
2023-01-23T20:29:45.635Z,2.33
2023-01-23T20:32:12.089Z,2.38
2023-01-23T20:34:38.587Z,2.32
2023-01-23T20:37:05.069Z,2.36
2023-01-23T20:39:31.521Z,2.40
2023-01-23T20:41:57.970Z,2.47
2023-01-23T20:44:24.461Z,2.44
2023-01-23T20:46:50.973Z,2.49
2023-01-23T20:49:17.553Z,2.54
2023-01-23T20:51:44.143Z,2.59
2023-01-23T20:54:10.663Z,2.62
2023-01-23T20:56:37.195Z,2.62
2023-01-23T20:59:19.025Z,2.59
2023-01-23T21:02:04.478Z,2.60
2023-01-23T21:04:33.440Z,2.58
2023-01-23T21:07:00.175Z,2.58
2023-01-23T21:09:27.065Z,2.58
2023-01-23T21:11:53.992Z,2.53
2023-01-23T21:14:21.059Z,2.54
2023-01-23T21:16:47.912Z,2.57
2023-01-23T21:19:14.901Z,2.59
2023-01-23T21:21:41.478Z,2.51
2023-01-23T21:24:08.206Z,2.47
2023-01-23T21:26:35.388Z,2.40
2023-01-23T21:29:01.842Z,2.36
2023-01-23T21:31:30.598Z,2.29
2023-01-23T21:33:59.108Z,2.32
2023-01-23T21:36:25.681Z,2.39
2023-01-23T21:38:52.653Z,2.36
2023-01-23T21:41:19.448Z,2.37
2023-01-23T21:43:46.143Z,2.38
2023-01-23T21:46:13.093Z,2.41
2023-01-23T21:48:39.625Z,2.40
2023-01-23T21:51:10.097Z,2.43
2023-01-23T21:53:37.643Z,2.46
2023-01-23T21:56:04.951Z,2.40
2023-01-23T21:58:31.589Z,2.42
2023-01-23T22:01:17.128Z,2.44
2023-01-23T22:03:44.696Z,2.51
2023-01-23T22:06:11.228Z,2.53
2023-01-23T22:08:37.877Z,2.46
2023-01-23T22:11:05.217Z,2.44
2023-01-23T22:13:31.708Z,2.43
2023-01-23T22:15:58.734Z,2.44
2023-01-23T22:18:25.466Z,2.43
2023-01-23T22:20:58.701Z,2.42
2023-01-23T22:23:25.459Z,2.46
2023-01-23T22:25:55.256Z,2.52
2023-01-23T22:28:21.811Z,2.56
2023-01-23T22:30:48.486Z,2.53
2023-01-23T22:33:15.188Z,2.58
2023-01-23T22:35:42.394Z,2.61
2023-01-23T22:38:09.983Z,2.59
2023-01-23T22:40:36.466Z,2.60
2023-01-23T22:43:03.382Z,2.61
2023-01-23T22:45:30.022Z,2.57
2023-01-23T22:47:56.489Z,2.59
2023-01-23T22:50:23.104Z,2.63
2023-01-23T22:52:49.535Z,2.56
2023-01-23T22:55:15.985Z,2.55
2023-01-23T22:57:42.487Z,2.58
2023-01-23T23:00:13.660Z,2.61
2023-01-23T23:02:40.602Z,2.59
2023-01-23T23:05:07.561Z,2.57
2023-01-23T23:07:34.495Z,2.52
2023-01-23T23:10:00.923Z,2.45
2023-01-23T23:12:28.010Z,2.47
2023-01-23T23:14:54.459Z,2.49
2023-01-23T23:17:20.902Z,2.51
2023-01-23T23:19:47.334Z,2.39
2023-01-23T23:22:13.777Z,2.40
2023-01-23T23:24:40.249Z,2.35
2023-01-23T23:27:06.676Z,2.37
2023-01-23T23:29:33.243Z,2.32
2023-01-23T23:31:59.776Z,2.33
2023-01-23T23:34:26.286Z,2.35
2023-01-23T23:36:52.734Z,2.33
2023-01-23T23:39:19.245Z,2.33
2023-01-23T23:41:45.681Z,2.27
2023-01-23T23:44:12.131Z,2.27
2023-01-23T23:46:38.595Z,2.29
2023-01-23T23:49:05.049Z,2.30
2023-01-23T23:51:31.493Z,2.37
2023-01-23T23:53:57.930Z,2.36
2023-01-23T23:56:26.104Z,2.40
2023-01-23T23:58:52.753Z,2.36
